sensor_id;sensor_type;location;lat;lon;timestamp;pressure;altitude;pressure_sealevel;temperature;humidity
48352;BME280;34163;49.314;6.752;2022-12-07T03:18:58;99758.50;;;9.00;100.00
48352;BME280;34163;49.314;6.752;2022-12-07T03:21:26;99748.78;;;9.01;100.00
48352;BME280;34163;49.314;6.752;2022-12-07T03:23:54;99748.78;;;9.01;100.00
48352;BME280;34163;49.314;6.752;2022-12-07T03:26:21;99744.34;;;9.01;100.00
48352;BME280;34163;49.314;6.752;2022-12-07T03:28:50;99751.38;;;9.02;100.00
48352;BME280;34163;49.314;6.752;2022-12-07T03:31:19;99752.22;;;9.03;100.00
48352;BME280;34163;49.314;6.752;2022-12-07T03:36:17;99750.47;;;9.03;100.00
48352;BME280;34163;49.314;6.752;2022-12-07T03:39:20;99748.69;;;9.04;100.00
48352;BME280;34163;49.314;6.752;2022-12-07T03:41:36;99746.88;;;9.04;100.00
48352;BME280;34163;49.314;6.752;2022-12-07T03:44:02;99750.41;;;9.05;100.00
48352;BME280;34163;49.314;6.752;2022-12-07T03:51:29;99753.06;;;9.05;100.00
48352;BME280;34163;49.314;6.752;2022-12-07T03:53:59;99755.66;;;9.06;100.00
48352;BME280;34163;49.314;6.752;2022-12-07T03:56:27;99751.28;;;9.05;100.00
48352;BME280;34163;49.314;6.752;2022-12-07T03:58:53;99750.41;;;9.05;100.00
48352;BME280;34163;49.314;6.752;2022-12-07T04:01:19;99741.59;;;9.04;100.00
48352;BME280;34163;49.314;6.752;2022-12-07T04:03:44;99745.97;;;9.05;100.00
48352;BME280;34163;49.314;6.752;2022-12-07T04:06:09;99738.00;;;9.07;100.00
48352;BME280;34163;49.314;6.752;2022-12-07T04:08:35;99740.63;;;9.07;100.00
48352;BME280;34163;49.314;6.752;2022-12-07T04:11:00;99739.78;;;9.06;100.00
48352;BME280;34163;49.314;6.752;2022-12-07T04:13:26;99732.78;;;9.05;100.00
48352;BME280;34163;49.314;6.752;2022-12-07T04:15:51;99734.44;;;9.08;100.00
48352;BME280;34163;49.314;6.752;2022-12-07T04:18:16;99737.03;;;9.09;100.00
48352;BME280;34163;49.314;6.752;2022-12-07T04:20:42;99742.31;;;9.09;100.00
48352;BME280;34163;49.314;6.752;2022-12-07T04:23:07;99738.78;;;9.09;100.00
48352;BME280;34163;49.314;6.752;2022-12-07T04:25:32;99736.16;;;9.09;100.00
48352;BME280;34163;49.314;6.752;2022-12-07T04:27:58;99735.28;;;9.08;100.00
48352;BME280;34163;49.314;6.752;2022-12-07T04:30:23;99745.03;;;9.08;100.00
48352;BME280;34163;49.314;6.752;2022-12-07T04:32:48;99740.53;;;9.10;100.00
48352;BME280;34163;49.314;6.752;2022-12-07T04:35:14;99738.78;;;9.09;100.00
48352;BME280;34163;49.314;6.752;2022-12-07T08:50:28;99778.91;;;8.97;100.00
48352;BME280;34163;49.314;6.752;2022-12-07T08:52:54;99780.63;;;8.98;100.00
48352;BME280;34163;49.314;6.752;2022-12-07T08:55:23;99784.19;;;8.97;100.00
48352;BME280;34163;49.314;6.752;2022-12-07T08:57:48;99782.47;;;8.96;100.00
48352;BME280;34163;49.314;6.752;2022-12-07T09:00:14;99778.91;;;8.97;100.00
48352;BME280;34163;49.314;6.752;2022-12-07T09:02:40;99784.09;;;8.98;100.00
48352;BME280;34163;49.314;6.752;2022-12-07T09:05:11;99779.75;;;8.97;100.00
48352;BME280;34163;49.314;6.752;2022-12-07T09:07:54;99789.41;;;8.98;100.00
48352;BME280;34163;49.314;6.752;2022-12-07T09:10:24;99781.47;;;8.98;100.00
48352;BME280;34163;49.314;6.752;2022-12-07T09:12:50;99784.06;;;9.00;100.00
48352;BME280;34163;49.314;6.752;2022-12-07T09:15:23;99776.97;;;9.02;100.00
48352;BME280;34163;49.314;6.752;2022-12-07T09:17:48;99785.75;;;9.02;100.00
48352;BME280;34163;49.314;6.752;2022-12-07T09:20:13;99784.88;;;9.02;100.00
48352;BME280;34163;49.314;6.752;2022-12-07T09:22:39;99786.59;;;9.03;100.00
48352;BME280;34163;49.314;6.752;2022-12-07T09:25:04;99786.59;;;9.03;100.00
48352;BME280;34163;49.314;6.752;2022-12-07T09:27:29;99784.78;;;9.05;100.00
48352;BME280;34163;49.314;6.752;2022-12-07T09:29:55;99783.94;;;9.03;100.00
48352;BME280;34163;49.314;6.752;2022-12-07T09:32:20;99777.69;;;9.05;100.00
48352;BME280;34163;49.314;6.752;2022-12-07T09:34:46;99784.84;;;8.78;100.00
48352;BME280;34163;49.314;6.752;2022-12-07T09:37:11;99779.56;;;7.41;100.00
48352;BME280;34163;49.314;6.752;2022-12-07T09:39:40;99785.63;;;6.84;100.00
48352;BME280;34163;49.314;6.752;2022-12-07T09:42:05;99776.00;;;6.50;100.00
48352;BME280;34163;49.314;6.752;2022-12-07T09:44:32;99783.47;;;6.32;100.00
48352;BME280;34163;49.314;6.752;2022-12-07T09:46:57;99783.91;;;6.14;100.00
48352;BME280;34163;49.314;6.752;2022-12-07T09:49:24;99784.31;;;5.98;100.00
48352;BME280;34163;49.314;6.752;2022-12-07T09:54:35;99775.09;;;5.77;100.00
48352;BME280;34163;49.314;6.752;2022-12-07T09:57:01;99774.19;;;5.80;100.00
48352;BME280;34163;49.314;6.752;2022-12-07T09:59:29;99771.97;;;5.61;100.00
48352;BME280;34163;49.314;6.752;2022-12-07T10:01:55;99769.91;;;5.74;100.00
48352;BME280;34163;49.314;6.752;2022-12-07T10:04:23;99770.53;;;6.58;100.00
48352;BME280;34163;49.314;6.752;2022-12-07T10:06:54;99765.66;;;7.06;100.00
48352;BME280;34163;49.314;6.752;2022-12-07T10:09:20;99762.09;;;7.39;100.00
48352;BME280;34163;49.314;6.752;2022-12-07T10:14:27;99755.53;;;7.80;100.00
48352;BME280;34163;49.314;6.752;2022-12-07T10:16:55;99751.63;;;7.92;100.00
48352;BME280;34163;49.314;6.752;2022-12-07T10:19:28;99755.81;;;7.99;100.00
48352;BME280;34163;49.314;6.752;2022-12-07T10:24:28;99743.81;;;8.16;100.00
48352;BME280;34163;49.314;6.752;2022-12-07T10:26:55;99741.88;;;8.21;100.00
48352;BME280;34163;49.314;6.752;2022-12-07T10:29:37;99743.50;;;8.25;100.00
48352;BME280;34163;49.314;6.752;2022-12-07T10:32:05;99736.28;;;8.30;100.00
48352;BME280;34163;49.314;6.752;2022-12-07T10:34:36;99734.34;;;8.35;100.00
48352;BME280;34163;49.314;6.752;2022-12-07T10:39:49;99727.13;;;8.41;100.00
48352;BME280;34163;49.314;6.752;2022-12-07T10:44:43;99727.81;;;8.47;100.00
48352;BME280;34163;49.314;6.752;2022-12-07T11:02:29;99708.78;;;8.63;100.00
48352;BME280;34163;49.314;6.752;2022-12-07T11:07:43;99699.94;;;8.64;100.00
48352;BME280;34163;49.314;6.752;2022-12-07T11:10:18;99699.00;;;8.66;100.00
48352;BME280;34163;49.314;6.752;2022-12-07T11:12:49;99697.19;;;8.67;100.00
48352;BME280;34163;49.314;6.752;2022-12-07T11:15:41;99690.06;;;8.69;100.00
48352;BME280;34163;49.314;6.752;2022-12-07T11:18:14;99684.69;;;8.72;100.00
48352;BME280;34163;49.314;6.752;2022-12-07T11:20:50;99691.69;;;8.73;100.00
48352;BME280;34163;49.314;6.752;2022-12-07T11:23:29;99689.00;;;8.75;100.00
48352;BME280;34163;49.314;6.752;2022-12-07T11:31:18;99679.16;;;8.78;100.00
48352;BME280;34163;49.314;6.752;2022-12-07T11:33:49;99679.91;;;8.82;100.00
48352;BME280;34163;49.314;6.752;2022-12-07T11:36:31;99675.50;;;8.82;100.00
48352;BME280;34163;49.314;6.752;2022-12-07T11:39:00;99672.78;;;8.84;100.00
48352;BME280;34163;49.314;6.752;2022-12-07T11:41:31;99673.72;;;8.83;100.00
48352;BME280;34163;49.314;6.752;2022-12-07T11:46:40;99670.06;;;8.85;100.00
48352;BME280;34163;49.314;6.752;2022-12-07T11:49:43;99670.06;;;8.85;100.00
48352;BME280;34163;49.314;6.752;2022-12-07T11:51:59;99661.25;;;8.86;100.00
48352;BME280;34163;49.314;6.752;2022-12-07T11:54:27;99658.59;;;8.86;100.00
48352;BME280;34163;49.314;6.752;2022-12-07T11:56:54;99650.63;;;8.88;100.00
48352;BME280;34163;49.314;6.752;2022-12-07T11:59:56;99659.41;;;8.88;100.00
48352;BME280;34163;49.314;6.752;2022-12-07T12:02:24;99659.34;;;8.90;100.00
48352;BME280;34163;49.314;6.752;2022-12-07T12:07:32;99654.94;;;8.90;100.00
48352;BME280;34163;49.314;6.752;2022-12-07T12:10:04;99645.94;;;8.95;100.00
48352;BME280;34163;49.314;6.752;2022-12-07T12:20:06;99642.34;;;8.97;100.00
48352;BME280;34163;49.314;6.752;2022-12-07T12:22:40;99648.47;;;8.98;100.00
48352;BME280;34163;49.314;6.752;2022-12-07T12:25:12;99648.47;;;8.98;100.00
48352;BME280;34163;49.314;6.752;2022-12-07T12:27:41;99639.66;;;8.99;100.00
48352;BME280;34163;49.314;6.752;2022-12-07T12:33:01;99640.38;;;9.02;100.00
48352;BME280;34163;49.314;6.752;2022-12-07T12:35:31;99639.53;;;9.02;100.00
48352;BME280;34163;49.314;6.752;2022-12-07T12:40:42;99632.38;;;9.04;100.00
48352;BME280;34163;49.314;6.752;2022-12-07T12:43:39;99627.09;;;9.04;100.00
48352;BME280;34163;49.314;6.752;2022-12-07T12:46:35;99623.56;;;9.05;100.00
48352;BME280;34163;49.314;6.752;2022-12-07T12:48:38;99631.56;;;7.80;100.00
48352;BME280;34163;49.314;6.752;2022-12-07T12:53:47;99627.56;;;6.54;100.00
48352;BME280;34163;49.314;6.752;2022-12-07T12:58:41;99626.94;;;6.14;100.00
48352;BME280;34163;49.314;6.752;2022-12-07T13:04:28;99625.00;;;5.87;100.00
48352;BME280;34163;49.314;6.752;2022-12-07T13:06:58;99617.25;;;5.80;100.00
48352;BME280;34163;49.314;6.752;2022-12-07T13:09:27;99623.88;;;5.62;100.00
48352;BME280;34163;49.314;6.752;2022-12-07T13:12:12;99618.72;;;5.58;100.00
48352;BME280;34163;49.314;6.752;2022-12-07T13:14:55;99618.31;;;6.41;100.00
48352;BME280;34163;49.314;6.752;2022-12-07T13:19:59;99619.47;;;7.46;100.00
48352;BME280;34163;49.314;6.752;2022-12-07T13:24:59;99608.34;;;7.90;100.00
48352;BME280;34163;49.314;6.752;2022-12-07T13:27:31;99592.06;;;8.04;100.00
48352;BME280;34163;49.314;6.752;2022-12-07T13:29:57;99587.25;;;8.15;100.00
48352;BME280;34163;49.314;6.752;2022-12-07T13:32:24;99594.81;;;8.25;100.00
48352;BME280;34163;49.314;6.752;2022-12-07T13:34:50;99588.47;;;8.30;100.00
48352;BME280;34163;49.314;6.752;2022-12-07T13:39:58;99585.53;;;8.38;100.00
48352;BME280;34163;49.314;6.752;2022-12-07T13:42:30;99590.63;;;8.44;100.00
48352;BME280;34163;49.314;6.752;2022-12-07T13:44:56;99584.41;;;8.45;100.00
48352;BME280;34163;49.314;6.752;2022-12-07T13:52:47;99581.06;;;8.40;100.00
48352;BME280;34163;49.314;6.752;2022-12-07T13:55:14;99579.38;;;8.37;100.00
48352;BME280;34163;49.314;6.752;2022-12-07T13:57:39;99578.75;;;8.31;100.00
48352;BME280;34163;49.314;6.752;2022-12-07T14:00:06;99580.72;;;8.26;100.00
48352;BME280;34163;49.314;6.752;2022-12-07T14:02:54;99578.16;;;8.23;100.00
48352;BME280;34163;49.314;6.752;2022-12-07T14:06:02;99579.53;;;8.09;100.00
48352;BME280;34163;49.314;6.752;2022-12-07T14:15:50;99578.38;;;7.68;100.00
48352;BME280;34163;49.314;6.752;2022-12-07T14:18:28;99581.94;;;7.65;100.00
48352;BME280;34163;49.314;6.752;2022-12-07T14:23:36;99567.69;;;7.45;100.00
48352;BME280;34163;49.314;6.752;2022-12-07T14:26:06;99568.06;;;7.33;100.00
48352;BME280;34163;49.314;6.752;2022-12-07T14:28:33;99561.06;;;7.32;100.00
48352;BME280;34163;49.314;6.752;2022-12-07T14:31:00;99562.84;;;7.32;100.00
48352;BME280;34163;49.314;6.752;2022-12-07T14:33:25;99552.06;;;7.39;100.00
48352;BME280;34163;49.314;6.752;2022-12-07T14:35:51;99554.34;;;7.50;100.00
48352;BME280;34163;49.314;6.752;2022-12-07T14:38:25;99551.22;;;7.64;100.00
48352;BME280;34163;49.314;6.752;2022-12-07T14:40:51;99548.84;;;7.81;100.00
48352;BME280;34163;49.314;6.752;2022-12-07T14:43:17;99549.38;;;7.91;100.00
48352;BME280;34163;49.314;6.752;2022-12-07T14:45:43;99547.31;;;8.01;100.00
48352;BME280;34163;49.314;6.752;2022-12-07T14:48:13;99548.56;;;8.14;100.00
48352;BME280;34163;49.314;6.752;2022-12-07T14:50:40;99546.50;;;8.23;100.00
48352;BME280;34163;49.314;6.752;2022-12-07T14:53:14;99550.66;;;8.30;100.00
48352;BME280;34163;49.314;6.752;2022-12-07T14:55:39;99539.72;;;8.39;100.00
48352;BME280;34163;49.314;6.752;2022-12-07T14:58:14;99536.94;;;8.44;100.00
48352;BME280;34163;49.314;6.752;2022-12-07T15:00:40;99534.13;;;8.48;100.00
48352;BME280;34163;49.314;6.752;2022-12-07T15:03:05;99535.75;;;8.52;100.00
48352;BME280;34163;49.314;6.752;2022-12-07T15:05:30;99539.06;;;8.58;100.00
48352;BME280;34163;49.314;6.752;2022-12-07T15:07:56;99536.31;;;8.61;100.00
48352;BME280;34163;49.314;6.752;2022-12-07T15:10:28;99538.78;;;8.65;100.00
48352;BME280;34163;49.314;6.752;2022-12-07T15:12:55;99536.88;;;8.69;100.00
48352;BME280;34163;49.314;6.752;2022-12-07T15:15:41;99536.75;;;8.72;100.00
48352;BME280;34163;49.314;6.752;2022-12-07T15:18:06;99536.63;;;8.75;100.00
48352;BME280;34163;49.314;6.752;2022-12-07T15:20:31;99540.00;;;8.79;100.00
48352;BME280;34163;49.314;6.752;2022-12-07T15:22:58;99544.31;;;8.81;100.00
48352;BME280;34163;49.314;6.752;2022-12-07T15:25:23;99553.03;;;8.83;100.00
48352;BME280;34163;49.314;6.752;2022-12-07T15:27:50;99552.91;;;8.86;100.00
48352;BME280;34163;49.314;6.752;2022-12-07T15:30:16;99559.00;;;8.88;100.00
48352;BME280;34163;49.314;6.752;2022-12-07T15:32:41;99555.44;;;8.89;100.00
48352;BME280;34163;49.314;6.752;2022-12-07T15:35:06;99555.38;;;8.91;100.00
48352;BME280;34163;49.314;6.752;2022-12-07T15:37:32;99543.84;;;8.94;100.00
48352;BME280;34163;49.314;6.752;2022-12-07T15:39:57;99544.63;;;8.96;100.00
48352;BME280;34163;49.314;6.752;2022-12-07T15:42:22;99537.50;;;8.98;100.00
48352;BME280;34163;49.314;6.752;2022-12-07T15:44:48;99543.56;;;9.00;100.00
48352;BME280;34163;49.314;6.752;2022-12-07T15:47:29;99542.66;;;9.01;100.00
48352;BME280;34163;49.314;6.752;2022-12-07T15:49:54;99540.78;;;9.03;100.00
48352;BME280;34163;49.314;6.752;2022-12-07T15:52:19;99536.44;;;8.80;100.00
48352;BME280;34163;49.314;6.752;2022-12-07T15:54:44;99536.31;;;8.12;100.00
48352;BME280;34163;49.314;6.752;2022-12-07T15:57:10;99538.50;;;7.75;100.00
48352;BME280;34163;49.314;6.752;2022-12-07T15:59:35;99536.00;;;7.47;100.00
48352;BME280;34163;49.314;6.752;2022-12-07T16:02:00;99526.91;;;7.29;100.00
48352;BME280;34163;49.314;6.752;2022-12-07T16:04:26;99531.78;;;7.15;100.00
48352;BME280;34163;49.314;6.752;2022-12-07T16:06:51;99525.28;;;6.98;100.00
48352;BME280;34163;49.314;6.752;2022-12-07T16:09:17;99521.19;;;6.89;100.00
48352;BME280;34163;49.314;6.752;2022-12-07T16:11:42;99512.72;;;6.80;100.00
48352;BME280;34163;49.314;6.752;2022-12-07T16:14:08;99517.34;;;6.71;100.00
48352;BME280;34163;49.314;6.752;2022-12-07T16:16:33;99521.19;;;6.61;100.00
48352;BME280;34163;49.314;6.752;2022-12-07T16:18:58;99528.47;;;6.53;100.00
48352;BME280;34163;49.314;6.752;2022-12-07T16:21:23;99531.09;;;6.53;100.00
48352;BME280;34163;49.314;6.752;2022-12-07T16:23:49;99529.59;;;6.44;100.00
48352;BME280;34163;49.314;6.752;2022-12-07T16:26:15;99522.72;;;6.40;100.00
48352;BME280;34163;49.314;6.752;2022-12-07T16:28:41;99525.38;;;6.39;100.00
48352;BME280;34163;49.314;6.752;2022-12-07T16:31:14;99523.66;;;6.38;100.00
48352;BME280;34163;49.314;6.752;2022-12-07T16:33:40;99529.19;;;6.28;100.00
48352;BME280;34163;49.314;6.752;2022-12-07T16:36:06;99526.56;;;6.28;100.00
48352;BME280;34163;49.314;6.752;2022-12-07T16:38:32;99529.34;;;6.22;100.00
48352;BME280;34163;49.314;6.752;2022-12-07T16:40:58;99528.63;;;6.17;100.00
48352;BME280;34163;49.314;6.752;2022-12-07T16:43:23;99523.63;;;6.08;100.00
48352;BME280;34163;49.314;6.752;2022-12-07T16:45:48;99524.38;;;6.13;100.00
48352;BME280;34163;49.314;6.752;2022-12-07T16:48:14;99526.44;;;6.03;100.00
48352;BME280;34163;49.314;6.752;2022-12-07T16:50:40;99514.28;;;5.97;100.00
48352;BME280;34163;49.314;6.752;2022-12-07T16:53:06;99510.69;;;6.02;100.00
48352;BME280;34163;49.314;6.752;2022-12-07T16:55:34;99516.09;;;5.95;100.00
48352;BME280;34163;49.314;6.752;2022-12-07T16:58:00;99516.16;;;5.92;100.00
48352;BME280;34163;49.314;6.752;2022-12-07T17:00:25;99510.94;;;5.91;100.00
48352;BME280;34163;49.314;6.752;2022-12-07T17:02:50;99512.00;;;5.83;100.00
48352;BME280;34163;49.314;6.752;2022-12-07T17:05:16;99511.00;;;5.89;100.00
48352;BME280;34163;49.314;6.752;2022-12-07T17:07:41;99501.44;;;5.85;100.00
48352;BME280;34163;49.314;6.752;2022-12-07T17:10:06;99511.16;;;5.83;100.00
48352;BME280;34163;49.314;6.752;2022-12-07T17:12:36;99501.56;;;5.80;100.00
48352;BME280;34163;49.314;6.752;2022-12-07T17:15:01;99500.03;;;5.73;100.00
48352;BME280;34163;49.314;6.752;2022-12-07T17:17:42;99503.53;;;5.74;100.00
48352;BME280;34163;49.314;6.752;2022-12-07T17:20:07;99498.22;;;5.75;100.00
48352;BME280;34163;49.314;6.752;2022-12-07T17:22:33;99493.50;;;6.20;100.00
48352;BME280;34163;49.314;6.752;2022-12-07T17:24:58;99491.38;;;6.61;100.00
48352;BME280;34163;49.314;6.752;2022-12-07T17:27:23;99492.31;;;6.86;100.00
48352;BME280;34163;49.314;6.752;2022-12-07T17:29:49;99488.16;;;7.06;100.00
48352;BME280;34163;49.314;6.752;2022-12-07T17:32:14;99480.59;;;7.22;100.00
48352;BME280;34163;49.314;6.752;2022-12-07T17:34:39;99476.84;;;7.29;100.00
48352;BME280;34163;49.314;6.752;2022-12-07T17:37:05;99478.06;;;6.65;100.00
48352;BME280;34163;49.314;6.752;2022-12-07T17:39:30;99487.16;;;6.25;100.00
48352;BME280;34163;49.314;6.752;2022-12-07T17:41:55;99486.00;;;6.06;100.00
48352;BME280;34163;49.314;6.752;2022-12-07T17:44:39;99480.28;;;5.90;100.00
48352;BME280;34163;49.314;6.752;2022-12-07T17:47:04;99488.47;;;5.79;100.00
48352;BME280;34163;49.314;6.752;2022-12-07T17:49:31;99490.47;;;5.71;100.00
48352;BME280;34163;49.314;6.752;2022-12-07T17:51:57;99486.28;;;5.63;100.00
48352;BME280;34163;49.314;6.752;2022-12-07T17:54:41;99486.44;;;5.57;100.00
48352;BME280;34163;49.314;6.752;2022-12-07T17:57:06;99484.16;;;5.45;100.00
48352;BME280;34163;49.314;6.752;2022-12-07T17:59:32;99488.47;;;5.48;100.00
48352;BME280;34163;49.314;6.752;2022-12-07T18:01:57;99488.72;;;5.38;100.00
48352;BME280;34163;49.314;6.752;2022-12-07T18:04:22;99479.13;;;5.36;100.00
48352;BME280;34163;49.314;6.752;2022-12-07T18:06:47;99481.72;;;5.37;100.00
48352;BME280;34163;49.314;6.752;2022-12-07T18:09:13;99481.88;;;5.31;100.00
48352;BME280;34163;49.314;6.752;2022-12-07T18:11:38;99475.75;;;5.31;100.00
48352;BME280;34163;49.314;6.752;2022-12-07T18:14:03;99489.72;;;5.33;100.00
48352;BME280;34163;49.314;6.752;2022-12-07T18:16:29;99479.31;;;5.28;100.00
48352;BME280;34163;49.314;6.752;2022-12-07T18:18:58;99481.25;;;5.21;100.00
48352;BME280;34163;49.314;6.752;2022-12-07T18:21:24;99477.72;;;5.22;100.00
48352;BME280;34163;49.314;6.752;2022-12-07T18:23:51;99469.13;;;5.17;100.00
48352;BME280;34163;49.314;6.752;2022-12-07T18:26:17;99472.47;;;5.22;100.00
48352;BME280;34163;49.314;6.752;2022-12-07T18:28:43;99470.91;;;5.15;100.00
48352;BME280;34163;49.314;6.752;2022-12-07T18:31:09;99457.94;;;5.09;100.00
48352;BME280;34163;49.314;6.752;2022-12-07T18:33:34;99466.69;;;5.09;100.00
48352;BME280;34163;49.314;6.752;2022-12-07T18:36:00;99464.94;;;5.08;100.00
48352;BME280;34163;49.314;6.752;2022-12-07T18:38:26;99464.09;;;5.08;100.00
48352;BME280;34163;49.314;6.752;2022-12-07T18:40:51;99464.94;;;5.08;100.00
48352;BME280;34163;49.314;6.752;2022-12-07T18:43:17;99468.50;;;5.07;100.00
48352;BME280;34163;49.314;6.752;2022-12-07T18:45:43;99471.38;;;4.97;100.00
48352;BME280;34163;49.314;6.752;2022-12-07T18:48:12;99476.63;;;4.97;100.00
48352;BME280;34163;49.314;6.752;2022-12-07T18:50:37;99473.22;;;4.93;100.00
48352;BME280;34163;49.314;6.752;2022-12-07T18:53:03;99465.34;;;4.93;100.00
48352;BME280;34163;49.314;6.752;2022-12-07T18:55:29;99466.22;;;4.94;100.00
48352;BME280;34163;49.314;6.752;2022-12-07T18:57:55;99465.25;;;4.96;100.00
48352;BME280;34163;49.314;6.752;2022-12-07T19:00:20;99468.03;;;4.91;100.00
48352;BME280;34163;49.314;6.752;2022-12-07T19:02:47;99465.41;;;4.91;100.00
48352;BME280;34163;49.314;6.752;2022-12-07T19:05:12;99468.88;;;4.92;100.00
48352;BME280;34163;49.314;6.752;2022-12-07T19:07:38;99459.16;;;4.96;100.00
48352;BME280;34163;49.314;6.752;2022-12-07T19:10:04;99457.44;;;4.95;100.00
48352;BME280;34163;49.314;6.752;2022-12-07T19:12:31;99461.81;;;4.94;100.00
48352;BME280;34163;49.314;6.752;2022-12-07T19:14:56;99458.38;;;4.92;100.00
48352;BME280;34163;49.314;6.752;2022-12-07T19:17:21;99449.72;;;4.88;100.00
48352;BME280;34163;49.314;6.752;2022-12-07T19:19:47;99450.53;;;4.90;100.00
48352;BME280;34163;49.314;6.752;2022-12-07T19:22:14;99451.34;;;4.93;100.00
48352;BME280;34163;49.314;6.752;2022-12-07T19:24:39;99450.59;;;4.87;100.00
48352;BME280;34163;49.314;6.752;2022-12-07T19:27:05;99457.66;;;4.85;100.00
48352;BME280;34163;49.314;6.752;2022-12-07T19:29:31;99445.34;;;4.87;100.00
48352;BME280;34163;49.314;6.752;2022-12-07T19:31:57;99449.84;;;4.82;100.00
48352;BME280;34163;49.314;6.752;2022-12-07T19:34:22;99448.22;;;4.77;100.00
48352;BME280;34163;49.314;6.752;2022-12-07T19:36:50;99439.50;;;4.76;100.00
48352;BME280;34163;49.314;6.752;2022-12-07T19:39:15;99440.44;;;4.73;100.00
48352;BME280;34163;49.314;6.752;2022-12-07T19:41:41;99433.41;;;4.76;100.00
48352;BME280;34163;49.314;6.752;2022-12-07T19:46:33;99435.88;;;4.80;100.00
48352;BME280;34163;49.314;6.752;2022-12-07T19:48:58;99432.81;;;4.64;100.00
48352;BME280;34163;49.314;6.752;2022-12-07T19:51:25;99439.69;;;4.68;100.00
48352;BME280;34163;49.314;6.752;2022-12-07T19:53:50;99435.16;;;4.75;100.00
48352;BME280;34163;49.314;6.752;2022-12-07T19:56:16;99432.56;;;4.73;100.00
48352;BME280;34163;49.314;6.752;2022-12-07T19:58:41;99439.59;;;4.73;100.00
48352;BME280;34163;49.314;6.752;2022-12-07T20:01:07;99435.28;;;4.69;100.00
48352;BME280;34163;49.314;6.752;2022-12-07T20:03:32;99443.09;;;4.72;100.00
48352;BME280;34163;49.314;6.752;2022-12-07T20:05:57;99443.94;;;4.74;100.00
48352;BME280;34163;49.314;6.752;2022-12-07T20:08:23;99435.16;;;4.75;100.00
48352;BME280;34163;49.314;6.752;2022-12-07T20:10:48;99438.66;;;4.76;100.00
48352;BME280;34163;49.314;6.752;2022-12-07T20:13:15;99430.22;;;4.63;100.00
48352;BME280;34163;49.314;6.752;2022-12-07T20:16:01;99436.22;;;4.68;100.00
48352;BME280;34163;49.314;6.752;2022-12-07T20:18:26;99433.19;;;4.83;100.00
48352;BME280;34163;49.314;6.752;2022-12-07T20:21:01;99436.09;;;4.72;100.00
48352;BME280;34163;49.314;6.752;2022-12-07T20:23:26;99435.22;;;4.72;100.00
48352;BME280;34163;49.314;6.752;2022-12-07T20:25:52;99432.84;;;4.63;100.00
48352;BME280;34163;49.314;6.752;2022-12-07T20:28:17;99431.94;;;4.64;100.00
48352;BME280;34163;49.314;6.752;2022-12-07T20:30:49;99431.78;;;4.70;100.00
48352;BME280;34163;49.314;6.752;2022-12-07T20:33:15;99428.25;;;4.71;100.00
48352;BME280;34163;49.314;6.752;2022-12-07T20:35:40;99430.97;;;4.68;100.00
48352;BME280;34163;49.314;6.752;2022-12-07T20:38:07;99424.97;;;4.63;100.00
48352;BME280;34163;49.314;6.752;2022-12-07T20:40:32;99423.38;;;4.55;100.00
48352;BME280;34163;49.314;6.752;2022-12-07T20:42:57;99425.19;;;4.53;100.00
48352;BME280;34163;49.314;6.752;2022-12-07T20:45:23;99423.31;;;4.59;100.00
48352;BME280;34163;49.314;6.752;2022-12-07T20:47:48;99421.59;;;4.56;100.00
48352;BME280;34163;49.314;6.752;2022-12-07T20:50:13;99423.38;;;4.55;100.00
48352;BME280;34163;49.314;6.752;2022-12-07T20:52:38;99419.94;;;4.53;100.00
48352;BME280;34163;49.314;6.752;2022-12-07T20:55:04;99422.63;;;4.50;100.00
48352;BME280;34163;49.314;6.752;2022-12-07T20:57:29;99421.03;;;4.43;100.00
48352;BME280;34163;49.314;6.752;2022-12-07T20:59:54;99419.38;;;4.41;100.00
48352;BME280;34163;49.314;6.752;2022-12-07T21:02:20;99413.09;;;4.46;100.00
48352;BME280;34163;49.314;6.752;2022-12-07T21:04:45;99413.88;;;4.50;100.00
48352;BME280;34163;49.314;6.752;2022-12-07T21:07:10;99402.78;;;4.39;100.00
48352;BME280;34163;49.314;6.752;2022-12-07T21:09:35;99395.88;;;4.36;100.00
48352;BME280;34163;49.314;6.752;2022-12-07T21:12:01;99399.41;;;4.33;100.00
48352;BME280;34163;49.314;6.752;2022-12-07T21:14:26;99401.69;;;4.49;100.00
48352;BME280;34163;49.314;6.752;2022-12-07T21:16:51;99403.53;;;4.45;100.00
48352;BME280;34163;49.314;6.752;2022-12-07T21:19:17;99396.00;;;4.30;100.00
48352;BME280;34163;49.314;6.752;2022-12-07T21:21:42;99392.25;;;4.40;100.00
48352;BME280;34163;49.314;6.752;2022-12-07T21:24:08;99392.09;;;4.46;100.00
48352;BME280;34163;49.314;6.752;2022-12-07T21:26:34;99388.03;;;4.34;100.00
48352;BME280;34163;49.314;6.752;2022-12-07T21:29:04;99382.84;;;4.31;100.00
48352;BME280;34163;49.314;6.752;2022-12-07T21:31:29;99385.50;;;4.30;100.00
48352;BME280;34163;49.314;6.752;2022-12-07T21:33:55;99383.78;;;4.29;100.00
48352;BME280;34163;49.314;6.752;2022-12-07T21:36:21;99387.06;;;4.37;100.00
48352;BME280;34163;49.314;6.752;2022-12-07T21:38:47;99384.50;;;4.35;100.00
48352;BME280;34163;49.314;6.752;2022-12-07T21:41:23;99378.53;;;4.29;100.00
48352;BME280;34163;49.314;6.752;2022-12-07T21:43:48;99386.41;;;4.29;100.00
48352;BME280;34163;49.314;6.752;2022-12-07T21:46:14;99382.94;;;4.28;100.00
48352;BME280;34163;49.314;6.752;2022-12-07T21:48:40;99380.38;;;4.25;100.00
48352;BME280;34163;49.314;6.752;2022-12-07T21:51:14;99372.41;;;4.30;100.00
48352;BME280;34163;49.314;6.752;2022-12-07T21:53:40;99372.47;;;4.27;100.00
48352;BME280;34163;49.314;6.752;2022-12-07T21:56:16;99372.88;;;4.80;100.00
48352;BME280;34163;49.314;6.752;2022-12-07T21:58:42;99375.28;;;4.89;100.00
48352;BME280;34163;49.314;6.752;2022-12-07T22:01:13;99364.66;;;4.61;100.00
48352;BME280;34163;49.314;6.752;2022-12-07T22:03:38;99372.84;;;4.47;100.00
48352;BME280;34163;49.314;6.752;2022-12-07T22:06:03;99373.84;;;4.42;100.00
48352;BME280;34163;49.314;6.752;2022-12-07T22:08:28;99370.34;;;4.43;100.00
48352;BME280;34163;49.314;6.752;2022-12-07T22:10:54;99376.59;;;4.37;100.00